createdAt,value
2018-12-06T00:02:09.006Z,232.90
2018-12-06T00:04:37.732Z,253.17
2018-12-06T00:07:06.523Z,243.53
2018-12-06T00:09:35.383Z,262.97
2018-12-06T00:12:04.189Z,279.17
2018-12-06T00:14:33.249Z,269.90
2018-12-06T00:17:01.983Z,275.07
2018-12-06T00:19:30.607Z,286.80
2018-12-06T00:21:59.804Z,275.97
2018-12-06T00:24:29.007Z,249.73
2018-12-06T00:26:57.878Z,257.73
2018-12-06T00:29:26.802Z,238.83
2018-12-06T00:31:55.717Z,241.50
2018-12-06T00:34:24.199Z,213.83
2018-12-06T00:36:53.001Z,222.97
2018-12-06T00:39:22.043Z,222.17
2018-12-06T00:41:50.892Z,227.80
2018-12-06T00:44:19.652Z,229.67
2018-12-06T00:46:50.029Z,218.73
2018-12-06T00:49:18.684Z,233.47
2018-12-06T00:51:47.616Z,205.23
2018-12-06T00:54:16.527Z,231.87
2018-12-06T00:56:45.487Z,227.03
2018-12-06T00:59:14.210Z,227.10
2018-12-06T01:01:42.901Z,244.37
2018-12-06T01:04:11.685Z,245.07
2018-12-06T01:06:40.338Z,256.73
2018-12-06T01:09:09.022Z,244.70
2018-12-06T01:11:40.308Z,262.30
2018-12-06T01:14:09.095Z,256.30
2018-12-06T01:16:37.915Z,262.33
2018-12-06T01:19:07.177Z,280.83
2018-12-06T01:21:36.224Z,285.07
2018-12-06T01:24:05.417Z,278.93
2018-12-06T01:26:34.216Z,290.17
2018-12-06T01:29:02.890Z,290.43
2018-12-06T01:31:31.667Z,318.67
2018-12-06T01:34:00.881Z,296.73
2018-12-06T01:36:29.820Z,338.33
2018-12-06T01:38:58.503Z,373.80
2018-12-06T01:41:27.042Z,400.33
2018-12-06T01:43:55.887Z,443.40
2018-12-06T01:46:24.622Z,441.90
2018-12-06T01:48:53.290Z,429.63
2018-12-06T01:51:22.156Z,451.93
2018-12-06T01:53:51.253Z,448.00
2018-12-06T01:56:19.974Z,471.13
2018-12-06T01:58:48.567Z,454.83
2018-12-06T02:01:17.635Z,446.03
2018-12-06T02:03:46.210Z,455.00
2018-12-06T02:06:15.036Z,478.03
2018-12-06T02:08:43.585Z,497.20
2018-12-06T02:11:12.325Z,468.93
2018-12-06T02:13:40.995Z,482.80
2018-12-06T02:16:09.840Z,471.50
2018-12-06T02:18:38.664Z,490.57
2018-12-06T02:21:07.279Z,472.07
2018-12-06T02:23:36.010Z,469.47
2018-12-06T02:26:04.590Z,487.50
2018-12-06T02:28:34.430Z,457.63
2018-12-06T02:31:03.466Z,459.60
2018-12-06T02:33:32.383Z,444.80
2018-12-06T02:36:01.223Z,474.43
2018-12-06T02:38:30.063Z,472.37
2018-12-06T02:41:00.119Z,467.37
2018-12-06T02:43:30.028Z,465.57
2018-12-06T02:45:58.982Z,459.90
2018-12-06T02:48:27.883Z,452.17
2018-12-06T02:50:56.597Z,466.87
2018-12-06T02:53:25.743Z,450.10
2018-12-06T02:55:54.894Z,424.13
2018-12-06T02:58:23.699Z,420.03
2018-12-06T03:00:52.810Z,434.97
2018-12-06T03:03:21.770Z,415.93
2018-12-06T03:05:50.694Z,411.97
2018-12-06T03:08:19.448Z,448.87
2018-12-06T03:10:48.328Z,403.63
2018-12-06T03:13:18.065Z,406.87
2018-12-06T03:15:47.041Z,363.23
2018-12-06T03:18:16.820Z,371.17
2018-12-06T03:20:45.406Z,377.03
2018-12-06T03:23:14.975Z,353.20
2018-12-06T03:25:43.629Z,360.53
2018-12-06T03:28:12.482Z,324.13
2018-12-06T03:30:41.363Z,307.30
2018-12-06T03:33:10.169Z,300.50
2018-12-06T03:35:38.716Z,272.00
2018-12-06T03:38:08.018Z,255.87
2018-12-06T03:40:36.734Z,249.37
2018-12-06T03:43:05.435Z,279.33
2018-12-06T03:45:34.303Z,252.37
2018-12-06T03:48:03.284Z,239.47
2018-12-06T03:50:32.134Z,220.70
2018-12-06T03:53:00.786Z,252.40
2018-12-06T03:55:29.414Z,239.83
2018-12-06T03:57:58.519Z,258.57
2018-12-06T04:00:27.569Z,238.60
2018-12-06T04:02:56.567Z,237.10
2018-12-06T04:05:25.188Z,228.43
2018-12-06T04:07:54.092Z,225.67
2018-12-06T04:10:23.097Z,221.27
2018-12-06T04:12:51.880Z,215.27
2018-12-06T04:15:20.853Z,215.80
2018-12-06T04:17:49.523Z,201.43
2018-12-06T04:20:18.315Z,187.30
2018-12-06T04:22:47.301Z,177.77
2018-12-06T04:25:16.039Z,176.50
2018-12-06T04:27:45.057Z,181.90
2018-12-06T04:30:14.394Z,164.27
2018-12-06T04:32:43.721Z,177.47
2018-12-06T04:35:12.475Z,173.43
2018-12-06T04:37:41.565Z,172.30
2018-12-06T04:40:10.141Z,179.37
2018-12-06T04:42:38.750Z,186.90
2018-12-06T04:45:11.201Z,188.27
2018-12-06T04:47:40.637Z,195.00
2018-12-06T04:50:09.563Z,189.97
2018-12-06T04:52:39.213Z,184.50
2018-12-06T04:55:08.058Z,200.70
2018-12-06T04:57:36.580Z,211.13
2018-12-06T05:00:05.866Z,208.17
2018-12-06T05:02:34.646Z,184.60
2018-12-06T05:05:03.322Z,185.97
2018-12-06T05:07:32.397Z,183.03
2018-12-06T05:10:01.499Z,195.93
2018-12-06T05:12:30.514Z,211.17
2018-12-06T05:14:59.686Z,255.07
2018-12-06T05:17:28.408Z,258.67
2018-12-06T05:19:57.713Z,267.97
2018-12-06T05:22:26.767Z,257.23
2018-12-06T05:24:55.639Z,261.40
2018-12-06T05:27:24.561Z,271.10
2018-12-06T05:29:53.616Z,318.67
2018-12-06T05:32:29.128Z,306.13
2018-12-06T05:34:57.719Z,300.80
2018-12-06T05:37:26.446Z,292.70
2018-12-06T05:39:55.299Z,277.77
2018-12-06T05:42:23.940Z,283.13
2018-12-06T05:44:52.638Z,271.40
2018-12-06T05:47:21.631Z,265.20
2018-12-06T05:49:50.464Z,270.80
2018-12-06T05:52:22.345Z,240.83
2018-12-06T05:54:51.407Z,244.90
2018-12-06T05:57:20.196Z,255.87
2018-12-06T05:59:48.877Z,249.00
2018-12-06T06:02:17.718Z,253.20
2018-12-06T06:04:47.384Z,249.47
2018-12-06T06:07:15.931Z,259.30
2018-12-06T06:09:44.550Z,239.70
2018-12-06T06:12:13.271Z,243.40
2018-12-06T06:14:43.737Z,234.33
2018-12-06T06:17:12.612Z,241.97
2018-12-06T06:19:41.826Z,238.03
2018-12-06T06:22:10.779Z,224.97
2018-12-06T06:24:43.931Z,213.60
2018-12-06T06:27:18.039Z,226.20
2018-12-06T06:29:47.116Z,220.77
2018-12-06T06:32:16.180Z,214.83
2018-12-06T06:34:48.468Z,197.90
2018-12-06T06:37:17.544Z,196.17
2018-12-06T06:39:46.238Z,177.50
2018-12-06T06:42:15.019Z,179.17
2018-12-06T06:44:43.634Z,177.10
2018-12-06T06:47:12.690Z,155.43
2018-12-06T06:49:42.048Z,152.47
2018-12-06T06:52:11.071Z,141.30
2018-12-06T06:54:40.031Z,149.23
2018-12-06T06:57:09.150Z,136.67
2018-12-06T06:59:39.435Z,140.63
2018-12-06T07:02:08.503Z,111.37
2018-12-06T07:04:41.898Z,125.17
2018-12-06T07:09:57.834Z,112.53
2018-12-06T07:12:26.680Z,114.30
2018-12-06T07:14:55.478Z,119.03
2018-12-06T07:17:24.608Z,119.67
2018-12-06T07:19:54.265Z,100.33
2018-12-06T07:22:23.293Z,119.90
2018-12-06T07:24:52.053Z,94.37
2018-12-06T07:27:24.188Z,100.00
2018-12-06T07:29:52.972Z,94.47
2018-12-06T07:32:21.632Z,103.33
2018-12-06T07:34:50.734Z,91.57
2018-12-06T07:37:19.406Z,93.83
2018-12-06T07:40:14.806Z,94.87
2018-12-06T07:42:44.128Z,100.17
2018-12-06T07:45:15.413Z,97.63
2018-12-06T07:47:44.883Z,102.47
2018-12-06T07:50:14.416Z,96.20
2018-12-06T07:52:44.153Z,104.20
2018-12-06T07:55:27.785Z,98.80
2018-12-06T07:57:56.808Z,97.90
2018-12-06T08:00:26.917Z,101.90
2018-12-06T08:02:55.458Z,103.20
2018-12-06T08:05:45.682Z,98.80
2018-12-06T08:08:21.894Z,108.53
2018-12-06T08:10:51.011Z,99.67
2018-12-06T08:13:21.857Z,105.57
2018-12-06T08:18:30.696Z,108.57
2018-12-06T08:21:00.107Z,101.83
2018-12-06T08:23:31.437Z,114.13
2018-12-06T08:26:00.677Z,107.77
2018-12-06T08:28:30.317Z,106.73
2018-12-06T08:31:00.438Z,111.40
2018-12-06T08:33:29.012Z,111.03
2018-12-06T08:36:03.432Z,112.00
2018-12-06T08:38:34.002Z,100.77
2018-12-06T08:41:03.657Z,97.23
2018-12-06T08:43:33.385Z,104.47
2018-12-06T08:46:20.797Z,91.80
2018-12-06T08:48:49.366Z,91.90
2018-12-06T08:51:18.100Z,88.00
2018-12-06T08:53:48.114Z,87.07
2018-12-06T08:56:16.597Z,86.60
2018-12-06T08:58:45.162Z,91.70
2018-12-06T09:01:14.439Z,91.57
2018-12-06T09:03:48.969Z,89.97
2018-12-06T09:06:17.682Z,98.97
2018-12-06T09:08:46.461Z,93.80
2018-12-06T09:11:15.125Z,96.13
2018-12-06T09:13:45.029Z,92.13
2018-12-06T09:16:16.328Z,92.13
2018-12-06T09:18:45.359Z,93.20
2018-12-06T09:21:16.063Z,92.27
2018-12-06T09:23:46.992Z,92.47
2018-12-06T09:26:16.529Z,95.20
2018-12-06T09:28:46.106Z,94.10
2018-12-06T09:31:16.446Z,84.40
2018-12-06T09:33:56.282Z,92.20
2018-12-06T09:36:25.954Z,92.37
2018-12-06T09:38:55.025Z,98.13
2018-12-06T09:41:23.933Z,98.50
2018-12-06T09:43:52.905Z,89.90
2018-12-06T09:46:21.497Z,109.70
2018-12-06T09:48:51.197Z,91.80
2018-12-06T09:51:20.178Z,103.70
2018-12-06T09:53:49.433Z,95.50
2018-12-06T09:56:18.718Z,90.67
2018-12-06T09:58:47.724Z,86.87
2018-12-06T10:01:16.494Z,84.90
2018-12-06T10:03:45.686Z,77.83
2018-12-06T10:06:14.913Z,81.23
2018-12-06T10:08:45.707Z,91.77
2018-12-06T10:11:14.726Z,85.07
2018-12-06T10:13:43.610Z,92.47
2018-12-06T10:16:12.608Z,79.97
2018-12-06T10:19:08.564Z,81.90
2018-12-06T10:21:39.791Z,77.17
2018-12-06T10:24:08.985Z,80.07
2018-12-06T10:26:38.386Z,76.60
2018-12-06T10:29:07.565Z,76.77
2018-12-06T10:31:57.742Z,78.47
2018-12-06T10:34:27.744Z,75.53
2018-12-06T10:36:56.542Z,70.80
2018-12-06T10:39:25.322Z,76.83
2018-12-06T10:41:55.293Z,63.73
2018-12-06T10:44:30.277Z,67.20
2018-12-06T10:46:59.266Z,64.90
2018-12-06T10:49:28.207Z,69.40
2018-12-06T10:51:56.897Z,64.83
2018-12-06T10:54:28.613Z,66.80
2018-12-06T10:56:57.397Z,67.70
2018-12-06T10:59:26.076Z,70.60
2018-12-06T11:02:00.334Z,65.33
2018-12-06T11:04:36.919Z,70.47
2018-12-06T11:07:07.406Z,73.73
2018-12-06T11:09:36.315Z,76.07
2018-12-06T11:12:05.358Z,74.30
2018-12-06T11:14:34.857Z,70.87
2018-12-06T11:17:03.685Z,74.90
2018-12-06T11:19:32.897Z,81.00
2018-12-06T11:22:02.250Z,67.80
2018-12-06T11:24:30.974Z,66.70
2018-12-06T11:26:59.674Z,75.97
2018-12-06T11:29:28.278Z,69.53
2018-12-06T11:31:58.745Z,70.73
2018-12-06T11:34:29.113Z,63.27
2018-12-06T11:36:58.896Z,67.50
2018-12-06T11:39:27.819Z,65.23
2018-12-06T11:41:56.726Z,69.90
2018-12-06T11:44:25.780Z,60.17
2018-12-06T11:46:54.554Z,65.17
2018-12-06T11:49:23.255Z,64.27
2018-12-06T11:51:52.423Z,67.93
2018-12-06T11:54:21.187Z,69.73
2018-12-06T11:56:51.922Z,60.80
2018-12-06T11:59:20.579Z,56.23
2018-12-06T12:01:49.276Z,65.70
2018-12-06T12:04:18.488Z,60.60
2018-12-06T12:06:47.755Z,63.10
2018-12-06T12:09:17.367Z,63.23
2018-12-06T12:11:45.930Z,64.63
2018-12-06T12:14:14.493Z,61.17
2018-12-06T12:16:43.178Z,58.33
2018-12-06T12:19:15.351Z,63.93
2018-12-06T12:21:44.098Z,67.73
2018-12-06T12:24:13.131Z,57.13
2018-12-06T12:26:41.750Z,64.07
2018-12-06T12:29:12.721Z,62.23
2018-12-06T12:31:41.359Z,60.63
2018-12-06T12:34:10.127Z,56.83
2018-12-06T12:36:39.250Z,67.70
2018-12-06T12:39:09.577Z,63.17
2018-12-06T12:41:38.376Z,67.57
2018-12-06T12:44:07.401Z,61.03
2018-12-06T12:46:36.074Z,55.97
2018-12-06T12:49:04.989Z,52.83
2018-12-06T12:51:33.684Z,61.43
2018-12-06T12:54:02.825Z,65.83
2018-12-06T12:56:31.738Z,68.50
2018-12-06T12:59:00.468Z,67.30
2018-12-06T13:01:29.070Z,69.03
2018-12-06T13:03:57.683Z,74.37
2018-12-06T13:06:27.386Z,67.37
2018-12-06T13:08:58.647Z,72.27
2018-12-06T13:11:29.048Z,78.13
2018-12-06T13:14:02.352Z,73.27
2018-12-06T13:16:32.278Z,72.40
2018-12-06T13:19:08.788Z,76.73
2018-12-06T13:21:43.106Z,73.90
2018-12-06T13:24:16.562Z,78.33
2018-12-06T13:26:53.330Z,87.70
2018-12-06T13:29:25.474Z,66.20
2018-12-06T13:31:56.518Z,74.27
2018-12-06T13:34:34.618Z,85.97
2018-12-06T13:37:13.911Z,84.67
2018-12-06T13:39:57.163Z,79.03
2018-12-06T13:42:30.935Z,82.83
2018-12-06T13:45:06.652Z,81.50
2018-12-06T13:47:37.291Z,90.07
2018-12-06T14:14:40.562Z,144.10
2018-12-06T14:17:51.961Z,154.83
2018-12-06T14:20:27.389Z,178.03
2018-12-06T14:22:56.919Z,164.13
2018-12-06T14:25:28.176Z,171.60
2018-12-06T14:27:57.517Z,163.70
2018-12-06T14:30:26.420Z,199.17
2018-12-06T14:32:56.330Z,202.20
2018-12-06T14:35:26.549Z,199.87
2018-12-06T14:37:55.620Z,194.83
2018-12-06T14:40:24.570Z,201.87
2018-12-06T14:42:55.144Z,193.93
2018-12-06T14:45:24.775Z,208.87
2018-12-06T14:47:53.972Z,194.20
2018-12-06T14:50:23.915Z,194.20
2018-12-06T14:52:55.296Z,185.70
2018-12-06T14:55:25.502Z,192.27
2018-12-06T14:58:08.579Z,199.53
2018-12-06T15:00:54.380Z,201.33
2018-12-06T15:03:24.255Z,203.73
2018-12-06T15:05:53.097Z,201.50
2018-12-06T15:08:25.667Z,208.50
2018-12-06T15:10:58.799Z,209.83
2018-12-06T15:13:28.004Z,183.70
2018-12-06T15:15:56.993Z,199.37
2018-12-06T15:18:26.047Z,191.77
2018-12-06T21:42:29.939Z,46.90
